Time;durP1;ratioP1;P1;durP2;ratioP2;P2;SDS_P1;SDS_P2;PMS_P1;PMS_P2;Temp;Humidity;BMP_temperature;BMP_pressure;BME280_temperature;BME280_humidity;BME280_pressure;Samples;Min_cycle;Max_cycle;Signal;HPM_P1;HPM_P2
2022/01/21 00:00:50;;;;;;;28.13;20.00;;;;;;;-2.18;100.00;98822.63;2098684;28;20675;-71
2022/01/21 00:01:53;;;;;;;25.30;19.15;;;;;;;-2.14;100.00;98821.19;2099306;28;20441;-71
2022/01/21 00:02:56;;;;;;;26.42;19.15;;;;;;;-2.10;100.00;98820.53;2099716;28;20285;-71
2022/01/21 00:03:57;;;;;;;23.25;18.88;;;;;;;-2.09;100.00;98823.94;2098898;28;20186;-71
2022/01/21 00:04:58;;;;;;;23.43;17.87;;;;;;;-2.09;100.00;98824.72;2098220;28;20228;-71
2022/01/21 00:06:00;;;;;;;25.48;19.33;;;;;;;-2.08;100.00;98825.56;2089789;28;20441;-71
2022/01/21 00:07:03;;;;;;;19.73;17.75;;;;;;;-2.07;100.00;98837.59;2090247;28;20284;-71
2022/01/21 00:08:08;;;;;;;19.70;17.55;;;;;;;-2.05;100.00;98832.94;2098883;28;20257;-71
2022/01/21 00:09:10;;;;;;;19.50;17.45;;;;;;;-2.01;100.00;98828.84;2098485;28;20194;-71
2022/01/21 00:10:13;;;;;;;19.35;17.15;;;;;;;-2.03;100.00;98820.44;2089535;28;20207;-71
2022/01/21 00:11:16;;;;;;;20.83;17.63;;;;;;;-2.00;100.00;98830.44;2098606;28;20195;-71
2022/01/21 00:12:17;;;;;;;19.88;17.42;;;;;;;-2.01;100.00;98837.50;2098617;28;20202;-71
2022/01/21 00:13:23;;;;;;;23.93;17.93;;;;;;;-2.02;100.00;98827.28;2090286;28;20649;-71
2022/01/21 00:14:25;;;;;;;26.05;18.77;;;;;;;-2.00;100.00;98833.06;2090516;28;20203;-70
2022/01/21 00:15:28;;;;;;;19.90;17.77;;;;;;;-1.99;100.00;98837.31;2090277;28;20628;-71
2022/01/21 00:16:29;;;;;;;26.00;18.48;;;;;;;-1.97;100.00;98831.84;2098588;28;20198;-71
2022/01/21 00:17:31;;;;;;;21.53;18.43;;;;;;;-1.98;100.00;98836.28;2098476;28;20194;-71
2022/01/21 00:18:32;;;;;;;20.67;18.55;;;;;;;-1.97;100.00;98844.91;2090212;28;20723;-71
2022/01/21 00:19:38;;;;;;;22.00;18.08;;;;;;;-1.96;100.00;98841.28;2098532;28;20189;-70
2022/01/21 00:30:13;;;;;;;19.73;17.63;;;;;;;-2.08;100.00;98825.56;2099145;28;20198;-71
2022/01/21 00:31:15;;;;;;;19.23;17.13;;;;;;;-2.10;100.00;98822.34;2097692;28;20592;-71
2022/01/21 00:32:15;;;;;;;20.15;17.55;;;;;;;-2.14;100.00;98823.81;2098473;28;20190;-71
2022/01/21 00:33:17;;;;;;;20.20;16.93;;;;;;;-2.13;100.00;98830.63;2099008;28;20282;-71
2022/01/21 00:34:18;;;;;;;19.70;17.40;;;;;;;-2.14;100.00;98829.03;2098980;28;20251;-71
2022/01/21 00:35:22;;;;;;;20.77;17.63;;;;;;;-2.15;100.00;98827.44;2098958;28;20182;-70
2022/01/21 00:36:24;;;;;;;21.05;17.60;;;;;;;-2.17;100.00;98826.84;2106221;28;20225;-71
2022/01/21 00:37:26;;;;;;;18.27;16.63;;;;;;;-2.17;100.00;98829.44;2106693;28;20182;-71
2022/01/21 00:38:29;;;;;;;22.00;17.15;;;;;;;-2.10;100.00;98843.25;2099209;28;20424;-71
2022/01/21 00:39:33;;;;;;;19.38;17.02;;;;;;;-2.13;100.00;98836.66;2099193;28;20683;-70
2022/01/21 00:40:35;;;;;;;18.20;16.50;;;;;;;-2.05;100.00;98838.16;2098902;28;20652;-70
2022/01/21 00:41:43;;;;;;;22.05;17.35;;;;;;;-2.09;100.00;98831.78;2098968;28;20186;-71
2022/01/21 00:43:08;;;;;;;17.95;16.02;;;;;;;-2.10;100.00;98830.19;2098209;28;20182;-71
2022/01/21 00:44:12;;;;;;;19.08;17.15;;;;;;;-2.10;100.00;98832.78;2093229;28;20198;-71
2022/01/21 00:45:15;;;;;;;17.80;16.23;;;;;;;-2.10;100.00;98830.19;2098360;28;20209;-71
2022/01/21 00:46:19;;;;;;;19.90;17.63;;;;;;;-2.10;100.00;98833.59;2098851;28;20614;-71
2022/01/21 00:47:21;;;;;;;18.33;16.70;;;;;;;-2.11;100.00;98832.00;2098149;28;20210;-71
2022/01/21 00:48:21;;;;;;;18.70;16.80;;;;;;;-2.08;100.00;98838.63;2090051;28;20564;-71
2022/01/21 00:49:23;;;;;;;17.87;16.20;;;;;;;-2.11;100.00;98837.22;2089953;28;20293;-71
2022/01/21 00:50:26;;;;;;;21.08;17.50;;;;;;;-2.12;100.00;98842.66;2098152;28;20221;-70
2022/01/21 00:51:29;;;;;;;18.70;16.85;;;;;;;-2.09;100.00;98842.22;2089532;28;20235;-71
2022/01/21 00:52:30;;;;;;;19.40;17.40;;;;;;;-2.10;100.00;98843.25;2098388;28;20190;-71
2022/01/21 00:53:32;;;;;;;19.00;17.07;;;;;;;-2.15;100.00;98854.38;2097786;28;20190;-70
2022/01/21 00:54:33;;;;;;;20.30;16.83;;;;;;;-2.15;100.00;98853.56;2089937;28;20272;-71
2022/01/21 00:55:35;;;;;;;19.77;17.90;;;;;;;-2.16;100.00;98849.38;2098471;28;20197;-70
2022/01/21 00:56:39;;;;;;;18.75;17.05;;;;;;;-2.14;100.00;98857.78;2098106;28;20221;-71
2022/01/21 00:57:42;;;;;;;19.85;17.30;;;;;;;-2.03;100.00;98860.44;2090280;28;20228;-71
2022/01/21 00:58:44;;;;;;;18.40;16.50;;;;;;;-2.06;100.00;98857.50;2090077;28;20686;-71
2022/01/21 00:59:46;;;;;;;19.05;17.13;;;;;;;-2.07;100.00;98861.13;2098062;28;20218;-71
2022/01/21 01:00:48;;;;;;;18.97;17.17;;;;;;;-2.09;100.00;98858.69;2098839;28;20236;-70
2022/01/21 01:01:49;;;;;;;21.65;17.33;;;;;;;-2.16;100.00;98852.78;2098905;28;20210;-71
2022/01/21 01:02:51;;;;;;;18.00;16.37;;;;;;;-2.10;100.00;98872.78;2106471;28;20714;-71
2022/01/21 01:03:52;;;;;;;22.27;16.48;;;;;;;-2.12;100.00;98855.75;2106673;28;20195;-71
2022/01/21 01:04:54;;;;;;;20.55;16.90;;;;;;;-2.13;100.00;98859.38;2098082;28;20697;-71
2022/01/21 01:05:58;;;;;;;19.25;17.13;;;;;;;-2.08;100.00;98859.53;2089454;28;20195;-71
2022/01/21 01:07:00;;;;;;;20.13;17.35;;;;;;;-2.09;100.00;98863.13;2098282;28;20625;-71
2022/01/21 01:08:03;;;;;;;18.13;16.50;;;;;;;-2.10;100.00;98851.09;2098960;28;20191;-71
2022/01/21 01:09:05;;;;;;;18.85;17.13;;;;;;;-2.05;100.00;98865.09;2098123;28;20638;-71
2022/01/21 01:10:09;;;;;;;18.33;16.73;;;;;;;-2.07;100.00;98861.13;2098134;28;20202;-71
2022/01/21 01:11:30;;;;;;;18.77;17.17;;;;;;;-2.06;100.00;98863.50;2106004;28;20268;-71
2022/01/21 01:12:49;;;;;;;18.20;16.55;;;;;;;-2.11;100.00;98852.09;2098025;28;20243;-71
2022/01/21 01:20:31;;;;;;;18.35;16.65;;;;;;;-2.13;100.00;98862.78;2103019;28;20220;-70
2022/01/21 01:21:33;;;;;;;18.55;16.95;;;;;;;-2.15;100.00;98866.63;2097779;28;20260;-71
2022/01/21 01:22:42;;;;;;;18.60;16.25;;;;;;;-2.15;100.00;98864.03;2098013;28;20191;-71
2022/01/21 01:24:02;;;;;;;17.02;15.60;;;;;;;-2.16;100.00;98867.66;2090891;28;20233;-71
2022/01/21 01:27:45;;;;;;;17.02;15.40;;;;;;;-2.18;100.00;98860.00;2106313;28;20691;-71
2022/01/21 01:28:46;;;;;;;17.15;15.57;;;;;;;-2.16;100.00;98867.66;2097670;28;20202;-70
2022/01/21 01:29:47;;;;;;;17.10;15.50;;;;;;;-2.19;100.00;98865.47;2089996;28;20199;-70
2022/01/21 01:30:49;;;;;;;16.77;15.50;;;;;;;-2.24;100.00;98863.53;2089383;28;20704;-71
2022/01/21 01:31:52;;;;;;;17.15;15.82;;;;;;;-2.25;100.00;98864.53;2089800;28;20760;-71
2022/01/21 01:32:58;;;;;;;17.45;15.65;;;;;;;-2.26;100.00;98878.59;2089398;28;20249;-71
2022/01/21 01:34:01;;;;;;;16.42;15.23;;;;;;;-2.25;100.00;98861.94;2089620;28;20199;-71
2022/01/21 01:35:03;;;;;;;17.67;16.13;;;;;;;-2.24;100.00;98871.34;2097243;28;20251;-70
2022/01/21 01:36:06;;;;;;;17.42;15.85;;;;;;;-2.17;100.00;98866.03;2097405;28;20198;-71
2022/01/21 01:37:16;;;;;;;16.73;15.23;;;;;;;-2.14;100.00;98863.81;2097960;28;20210;-71
2022/01/21 01:38:42;;;;;;;16.73;15.43;;;;;;;-2.10;100.00;98866.75;2098405;28;20231;-71
2022/01/21 01:39:46;;;;;;;16.85;15.45;;;;;;;-2.06;100.00;98863.50;2098739;28;20693;-70
2022/01/21 01:40:52;;;;;;;16.85;15.02;;;;;;;-2.07;100.00;98877.59;2098638;28;20197;-71
2022/01/21 01:41:59;;;;;;;17.77;16.25;;;;;;;-2.07;100.00;98868.97;2098056;28;20680;-70
2022/01/21 01:49:51;;;;;;;17.05;15.50;;;;;;;-2.15;100.00;98866.63;2097992;28;20770;-70
2022/01/21 01:50:52;;;;;;;17.85;16.33;;;;;;;-2.15;100.00;98874.47;2097452;28;20688;-71
2022/01/21 01:51:55;;;;;;;17.95;16.23;;;;;;;-2.15;100.00;98884.94;2098700;28;20197;-70
2022/01/21 01:52:57;;;;;;;17.35;15.90;;;;;;;-2.18;100.00;98878.31;2097844;28;20202;-70
2022/01/21 01:54:03;;;;;;;18.15;16.30;;;;;;;-2.15;100.00;98882.31;2098105;28;20190;-71
2022/01/21 01:55:08;;;;;;;18.15;16.45;;;;;;;-2.11;100.00;98886.09;2097253;28;20209;-71
2022/01/21 01:56:13;;;;;;;18.52;16.60;;;;;;;-2.13;100.00;98877.66;2098243;28;20562;-70
2022/01/21 01:57:15;;;;;;;17.23;16.02;;;;;;;-2.09;100.00;98890.06;2098128;28;20265;-70
2022/01/21 01:58:17;;;;;;;17.45;15.85;;;;;;;-2.10;100.00;98898.94;2089630;28;20289;-70
2022/01/21 01:59:19;;;;;;;19.30;16.23;;;;;;;-2.10;100.00;98898.94;2097864;28;20687;-71
2022/01/21 02:00:20;;;;;;;17.38;15.85;;;;;;;-2.11;100.00;98897.34;2098632;28;20653;-70
2022/01/21 02:01:22;;;;;;;17.90;16.37;;;;;;;-2.10;100.00;98898.13;2098495;28;20640;-70
2022/01/21 02:02:23;;;;;;;17.02;15.57;;;;;;;-2.13;100.00;98893.34;2098776;28;20188;-71
2022/01/21 02:03:25;;;;;;;16.83;15.43;;;;;;;-2.14;100.00;98899.59;2097393;28;20194;-71
2022/01/21 02:04:26;;;;;;;16.95;15.52;;;;;;;-2.14;100.00;98904.81;2089221;28;20446;-71
2022/01/21 02:05:30;;;;;;;17.73;16.23;;;;;;;-2.20;100.00;98900.44;2089599;28;20249;-71
2022/01/21 02:06:31;;;;;;;17.75;16.25;;;;;;;-2.17;100.00;98916.50;2089457;28;20219;-70
2022/01/21 02:07:36;;;;;;;17.75;16.45;;;;;;;-2.14;100.00;98917.88;2097872;28;20210;-71
2022/01/21 02:08:36;;;;;;;18.00;16.33;;;;;;;-2.14;100.00;98912.66;2097819;28;20194;-70
2022/01/21 02:09:39;;;;;;;17.47;16.10;;;;;;;-2.11;100.00;98922.66;2088905;28;20194;-71
2022/01/21 02:10:40;;;;;;;17.38;16.00;;;;;;;-2.16;100.00;98915.50;2089280;28;20207;-71
2022/01/21 02:11:41;;;;;;;17.13;15.38;;;;;;;-2.23;100.00;98927.03;2097943;28;20718;-70
2022/01/21 02:12:42;;;;;;;17.98;16.50;;;;;;;-2.22;100.00;98912.94;2097866;28;20194;-70
2022/01/21 02:13:49;;;;;;;17.57;16.00;;;;;;;-2.30;100.00;98906.97;2089564;28;20281;-70
2022/01/21 02:14:53;;;;;;;17.80;16.33;;;;;;;-2.29;100.00;98911.19;2090189;28;20452;-71
2022/01/21 02:15:59;;;;;;;16.88;15.48;;;;;;;-2.26;100.00;98912.56;2089810;28;20221;-70
2022/01/21 02:17:14;;;;;;;17.15;15.75;;;;;;;-2.27;100.00;98927.44;2097993;28;20300;-70
2022/01/21 02:22:19;;;;;;;17.23;15.73;;;;;;;-2.25;100.00;98926.44;2106141;28;20193;-70
2022/01/21 02:23:19;;;;;;;16.65;15.40;;;;;;;-2.26;100.00;98925.63;2097814;28;20228;-71
2022/01/21 02:24:29;;;;;;;17.05;15.55;;;;;;;-2.31;100.00;98934.13;2089531;28;20191;-70
2022/01/21 02:25:30;;;;;;;16.40;15.10;;;;;;;-2.29;100.00;98934.69;2090706;28;20187;-70
2022/01/21 02:26:34;;;;;;;17.67;16.17;;;;;;;-2.26;100.00;98936.06;2089557;28;20680;-70
2022/01/21 02:27:36;;;;;;;17.20;15.90;;;;;;;-2.24;100.00;98922.81;2089755;28;20692;-70
2022/01/21 02:28:40;;;;;;;17.17;15.95;;;;;;;-2.29;100.00;98934.69;2089598;28;20662;-70
2022/01/21 02:29:46;;;;;;;16.75;15.55;;;;;;;-2.35;100.00;98932.13;2097866;28;20247;-70
2022/01/21 02:30:53;;;;;;;17.77;16.30;;;;;;;-2.36;100.00;98927.94;2098174;28;20560;-70
2022/01/21 02:31:57;;;;;;;17.05;15.45;;;;;;;-2.40;100.00;98924.97;2097802;28;20182;-70
2022/01/21 02:33:01;;;;;;;17.88;16.10;;;;;;;-2.42;100.00;98940.06;2089624;28;20199;-70
2022/01/21 02:34:04;;;;;;;18.23;16.00;;;;;;;-2.42;100.00;98934.03;2089929;28;20202;-70
2022/01/21 02:35:06;;;;;;;17.48;15.95;;;;;;;-2.46;100.00;98938.88;2098025;28;20648;-70
2022/01/21 02:36:07;;;;;;;17.35;15.32;;;;;;;-2.47;100.00;98945.13;2097899;28;20676;-70
2022/01/21 02:37:10;;;;;;;18.67;16.23;;;;;;;-2.45;100.00;98932.63;2097382;28;20656;-70
2022/01/21 02:38:13;;;;;;;15.98;14.73;;;;;;;-2.50;100.00;98935.09;2089606;28;20248;-70
2022/01/21 02:39:14;;;;;;;17.02;15.73;;;;;;;-2.49;100.00;98934.09;2089466;28;20203;-70
2022/01/21 02:40:17;;;;;;;16.70;15.40;;;;;;;-2.54;100.00;98931.31;2089403;28;20245;-70
2022/01/21 02:41:20;;;;;;;16.75;15.35;;;;;;;-2.54;100.00;98925.28;2097813;28;20197;-70
2022/01/21 02:42:20;;;;;;;17.73;16.10;;;;;;;-2.61;100.00;98917.50;2106106;28;20534;-70
2022/01/21 02:43:23;;;;;;;16.70;15.15;;;;;;;-2.68;100.00;98925.41;2097719;28;20198;-70
2022/01/21 02:44:25;;;;;;;17.63;16.25;;;;;;;-2.72;100.00;98928.66;2089598;28;20206;-70
2022/01/21 02:45:27;;;;;;;17.02;15.57;;;;;;;-2.75;100.00;98922.06;2091254;28;20223;-70
2022/01/21 02:46:29;;;;;;;17.05;15.68;;;;;;;-2.74;100.00;98917.63;2090731;28;20684;-70
2022/01/21 02:47:33;;;;;;;18.13;16.40;;;;;;;-2.75;100.00;98931.69;2090994;28;20743;-70
2022/01/21 02:48:37;;;;;;;16.30;15.10;;;;;;;-2.73;100.00;98929.66;2091288;28;20214;-69
2022/01/21 02:49:39;;;;;;;15.98;14.65;;;;;;;-2.74;100.00;98938.50;2091388;28;20691;-69
2022/01/21 02:50:40;;;;;;;16.63;15.20;;;;;;;-2.76;100.00;98930.09;2099265;28;20186;-70
2022/01/21 02:51:42;;;;;;;16.63;15.10;;;;;;;-2.75;100.00;98926.47;2098790;28;20229;-70
2022/01/21 02:52:55;;;;;;;16.20;14.80;;;;;;;-2.78;100.00;98939.94;2090967;28;20195;-69
2022/01/21 02:54:07;;;;;;;16.20;14.85;;;;;;;-2.74;100.00;98941.91;2099401;28;20693;-69
2022/01/21 02:55:09;;;;;;;15.70;14.65;;;;;;;-2.69;100.00;98941.31;2099172;28;20225;-70
2022/01/21 02:56:12;;;;;;;16.58;15.32;;;;;;;-2.65;100.00;98950.28;2099289;28;20183;-70
2022/01/21 02:57:13;;;;;;;15.95;14.60;;;;;;;-2.66;100.00;98957.31;2099115;28;20241;-69
2022/01/21 02:58:14;;;;;;;16.25;14.85;;;;;;;-2.66;100.00;98949.50;2090943;28;20595;-70
2022/01/21 02:59:17;;;;;;;17.08;15.45;;;;;;;-2.67;100.00;98957.53;2090850;28;20191;-70
2022/01/21 03:00:18;;;;;;;16.52;15.15;;;;;;;-2.69;100.00;98964.78;2099340;28;20653;-70
2022/01/21 03:01:21;;;;;;;16.30;15.00;;;;;;;-2.73;100.00;98968.81;2098634;28;20673;-70
2022/01/21 03:02:24;;;;;;;20.58;15.02;;;;;;;-2.74;100.00;98967.22;2099206;28;20194;-70
2022/01/21 03:03:25;;;;;;;15.90;14.70;;;;;;;-2.76;100.00;98958.81;2099115;28;20595;-70
2022/01/21 03:04:36;;;;;;;16.52;15.00;;;;;;;-2.73;100.00;98974.06;2090631;28;20229;-69
2022/01/21 03:05:39;;;;;;;16.75;15.18;;;;;;;-2.74;100.00;98960.19;2091961;28;20191;-70
2022/01/21 03:06:41;;;;;;;16.30;14.88;;;;;;;-2.77;100.00;98958.03;2090771;28;20218;-70
2022/01/21 03:07:45;;;;;;;16.13;14.93;;;;;;;-2.76;100.00;98969.25;2090728;28;20199;-71
2022/01/21 03:08:49;;;;;;;16.95;15.60;;;;;;;-2.80;100.00;98986.34;2082683;28;20286;-70
2022/01/21 03:09:52;;;;;;;17.33;14.95;;;;;;;-2.87;100.00;98970.72;2082992;28;20721;-69
2022/01/21 03:10:53;;;;;;;16.80;15.50;;;;;;;-2.92;100.00;98979.19;2082586;28;20202;-69
2022/01/21 03:11:55;;;;;;;16.40;14.98;;;;;;;-2.90;100.00;98974.56;2082547;28;20222;-71
2022/01/21 03:12:56;;;;;;;16.55;15.23;;;;;;;-2.92;100.00;98968.75;2090875;28;20195;-71
2022/01/21 03:13:58;;;;;;;17.43;15.87;;;;;;;-2.97;100.00;98976.41;2091569;28;20222;-70
2022/01/21 03:14:59;;;;;;;16.10;14.82;;;;;;;-2.97;100.00;98973.00;2090738;28;20222;-70
2022/01/21 03:16:01;;;;;;;16.90;15.50;;;;;;;-2.97;100.00;98971.19;2090821;28;20191;-70
2022/01/21 03:17:04;;;;;;;18.15;15.50;;;;;;;-3.04;100.00;98969.63;2090744;28;20290;-70
2022/01/21 03:18:05;;;;;;;16.95;15.63;;;;;;;-3.06;100.00;98967.22;2082585;28;20200;-70
2022/01/21 03:19:06;;;;;;;17.20;15.60;;;;;;;-3.11;100.00;98971.50;2082433;28;20227;-69
2022/01/21 03:20:08;;;;;;;19.23;15.73;;;;;;;-3.14;100.00;98965.66;2082497;28;20294;-70
2022/01/21 03:21:16;;;;;;;17.65;16.20;;;;;;;-3.10;100.00;98975.69;2084711;28;20261;-70
2022/01/21 03:22:17;;;;;;;17.08;15.52;;;;;;;-3.13;100.00;98969.06;2091572;28;20191;-70
2022/01/21 03:23:22;;;;;;;17.45;15.65;;;;;;;-3.13;100.00;98979.50;2098519;28;20194;-70
2022/01/21 03:24:23;;;;;;;17.38;16.05;;;;;;;-3.17;100.00;98978.34;2107178;28;20198;-70
2022/01/21 03:25:26;;;;;;;17.27;15.73;;;;;;;-3.22;100.00;98983.38;2098932;28;20210;-70
2022/01/21 03:26:29;;;;;;;17.75;16.30;;;;;;;-3.27;100.00;98975.38;2090867;28;20215;-69
2022/01/21 03:27:30;;;;;;;17.85;16.35;;;;;;;-3.29;100.00;98974.81;2090807;28;20199;-70
2022/01/21 03:28:32;;;;;;;18.35;16.50;;;;;;;-3.38;100.00;98976.84;2090636;28;20218;-70
2022/01/21 03:29:37;;;;;;;17.02;15.60;;;;;;;-3.32;100.00;98980.41;2090924;28;20293;-70
2022/01/21 03:30:42;;;;;;;17.38;16.05;;;;;;;-3.29;100.00;98983.41;2091068;28;20203;-70
2022/01/21 03:31:48;;;;;;;18.23;16.67;;;;;;;-3.28;100.00;98982.41;2091129;28;20220;-70
2022/01/21 03:32:49;;;;;;;17.33;15.90;;;;;;;-3.34;100.00;98985.03;2090683;28;20199;-70
2022/01/21 03:33:51;;;;;;;20.07;17.50;;;;;;;-3.29;100.00;98995.66;2090639;28;20722;-70
2022/01/21 03:34:52;;;;;;;17.40;15.70;;;;;;;-3.35;100.00;98986.06;2090028;28;20254;-70
2022/01/21 03:35:55;;;;;;;22.35;15.30;;;;;;;-3.38;100.00;98973.44;2090140;28;20653;-70
2022/01/21 03:36:56;;;;;;;16.73;15.18;;;;;;;-3.42;100.00;98992.09;2090601;28;20199;-69
2022/01/21 03:37:57;;;;;;;17.57;15.93;;;;;;;-3.42;100.00;98970.44;2090215;28;20191;-70
2022/01/21 03:38:58;;;;;;;19.45;17.17;;;;;;;-3.33;100.00;98997.06;2099178;28;20432;-70
2022/01/21 03:40:00;;;;;;;18.63;15.80;;;;;;;-3.35;100.00;98993.88;2098851;28;20676;-70
2022/01/21 03:41:03;;;;;;;17.13;15.35;;;;;;;-3.42;100.00;98986.88;2090577;28;20741;-70
2022/01/21 03:42:05;;;;;;;17.35;15.63;;;;;;;-3.44;100.00;98988.91;2090637;28;20187;-70
2022/01/21 03:43:06;;;;;;;16.88;15.35;;;;;;;-3.41;100.00;98998.91;2098947;28;20201;-71
2022/01/21 03:44:10;;;;;;;17.60;16.05;;;;;;;-3.41;100.00;98995.50;2098790;28;20198;-70
2022/01/21 03:45:12;;;;;;;17.27;15.43;;;;;;;-3.45;100.00;99002.16;2090510;28;20696;-70
2022/01/21 03:46:14;;;;;;;16.75;15.43;;;;;;;-3.44;100.00;99003.75;2090682;28;20206;-70
2022/01/21 03:47:15;;;;;;;16.60;15.30;;;;;;;-3.45;100.00;98999.53;2098815;28;20212;-70
2022/01/21 03:48:17;;;;;;;17.57;15.90;;;;;;;-3.46;100.00;98997.94;2098669;28;20237;-71
2022/01/21 03:49:19;;;;;;;17.25;15.88;;;;;;;-3.49;100.00;98999.13;2098456;28;20303;-69
2022/01/21 03:50:29;;;;;;;18.42;17.02;;;;;;;-3.52;100.00;98996.94;2098700;28;20289;-70
2022/01/21 03:51:34;;;;;;;17.63;16.00;;;;;;;-3.53;100.00;99003.19;2091161;28;20218;-70
2022/01/21 03:52:35;;;;;;;17.08;15.75;;;;;;;-3.58;100.00;98989.16;2090671;28;20204;-69
2022/01/21 03:53:36;;;;;;;17.90;16.17;;;;;;;-3.57;100.00;98985.53;2090739;28;20195;-70
2022/01/21 03:54:37;;;;;;;18.35;16.83;;;;;;;-3.59;100.00;99004.00;2090024;28;20207;-69
2022/01/21 03:55:39;;;;;;;19.50;16.47;;;;;;;-3.65;100.00;98996.97;2090294;28;20290;-70
2022/01/21 03:56:42;;;;;;;17.15;15.63;;;;;;;-3.62;100.00;98993.97;2089760;28;20233;-70
2022/01/21 03:57:45;;;;;;;17.48;15.75;;;;;;;-3.54;100.00;99019.03;2098874;28;20195;-69
2022/01/21 03:58:48;;;;;;;16.85;15.43;;;;;;;-3.52;100.00;99006.59;2098622;28;20205;-69
2022/01/21 03:59:51;;;;;;;17.73;15.98;;;;;;;-3.55;100.00;99013.00;2090535;28;20267;-69
2022/01/21 04:00:54;;;;;;;17.75;16.02;;;;;;;-3.60;100.00;99005.00;2090452;28;20249;-70
2022/01/21 04:01:56;;;;;;;18.40;15.68;;;;;;;-3.61;100.00;99008.63;2090600;28;20325;-70
2022/01/21 04:02:58;;;;;;;17.23;15.82;;;;;;;-3.57;100.00;99007.19;2098726;28;20680;-69
2022/01/21 04:04:01;;;;;;;18.17;16.35;;;;;;;-3.64;100.00;99005.63;2098629;28;20206;-70
2022/01/21 04:05:02;;;;;;;17.77;16.20;;;;;;;-3.64;100.00;99010.84;2090539;28;20191;-70
2022/01/21 04:06:04;;;;;;;16.98;15.68;;;;;;;-3.65;100.00;99001.41;2089401;28;20206;-69
2022/01/21 04:07:07;;;;;;;17.35;16.05;;;;;;;-3.71;100.00;99016.88;2090428;28;20214;-70
2022/01/21 04:08:14;;;;;;;17.98;16.42;;;;;;;-3.74;100.00;99019.06;2091299;28;20187;-70
2022/01/21 04:09:17;;;;;;;17.15;15.70;;;;;;;-3.75;100.00;99026.09;2090557;28;20621;-70
2022/01/21 04:10:19;;;;;;;17.50;15.73;;;;;;;-3.76;100.00;99013.25;2090686;28;20274;-69
2022/01/21 04:11:22;;;;;;;18.10;16.25;;;;;;;-3.80;100.00;99019.91;2090507;28;20219;-70
2022/01/21 04:12:25;;;;;;;18.55;17.00;;;;;;;-3.75;100.00;99020.06;2090554;28;20203;-70
2022/01/21 04:13:27;;;;;;;17.95;16.35;;;;;;;-3.74;100.00;99019.88;2090446;28;20198;-69
2022/01/21 04:14:34;;;;;;;18.20;16.52;;;;;;;-3.78;100.00;99013.47;2090880;28;20637;-70
2022/01/21 04:15:35;;;;;;;18.38;16.60;;;;;;;-3.74;100.00;99043.31;2090551;28;20190;-69
2022/01/21 04:16:36;;;;;;;18.38;16.63;;;;;;;-3.72;100.00;99009.25;2090260;28;20230;-69
2022/01/21 04:17:41;;;;;;;18.67;17.00;;;;;;;-3.76;100.00;99029.69;2090437;28;20195;-70
2022/01/21 04:18:43;;;;;;;20.30;17.10;;;;;;;-3.76;100.00;99005.44;2090525;28;20545;-69
2022/01/21 04:19:47;;;;;;;18.63;16.92;;;;;;;-3.78;100.00;99023.91;2090701;28;20199;-70
2022/01/21 04:20:48;;;;;;;18.70;16.77;;;;;;;-3.77;100.00;99024.69;2090277;28;20195;-69
2022/01/21 04:21:50;;;;;;;19.23;17.65;;;;;;;-3.78;100.00;99026.50;2098215;28;20238;-70
2022/01/21 04:22:53;;;;;;;18.50;16.77;;;;;;;-3.79;100.00;99016.28;2098533;28;20640;-70
2022/01/21 04:23:55;;;;;;;18.98;17.27;;;;;;;-3.82;100.00;99024.50;2090448;28;20213;-70
2022/01/21 04:25:04;;;;;;;19.10;16.60;;;;;;;-3.82;100.00;99029.72;2091202;28;20726;-70
2022/01/21 04:26:06;;;;;;;20.52;17.48;;;;;;;-3.80;100.00;99017.28;2090485;28;20231;-70
2022/01/21 04:27:07;;;;;;;21.45;17.45;;;;;;;-3.80;100.00;99020.69;2089830;28;20202;-70
2022/01/21 04:28:10;;;;;;;19.20;16.43;;;;;;;-3.84;100.00;99027.31;2098651;28;20683;-70
2022/01/21 04:29:11;;;;;;;18.70;16.88;;;;;;;-3.86;100.00;99018.09;2098401;28;20206;-70
2022/01/21 04:30:23;;;;;;;17.63;15.93;;;;;;;-3.80;100.00;99025.13;2091561;28;20732;-70
2022/01/21 04:31:25;;;;;;;18.40;16.92;;;;;;;-3.82;100.00;99032.31;2089874;28;20205;-70
2022/01/21 04:32:28;;;;;;;18.42;16.55;;;;;;;-3.89;100.00;99034.16;2090263;28;20203;-70
2022/01/21 04:33:31;;;;;;;18.42;16.52;;;;;;;-3.89;100.00;99036.75;2090544;28;20245;-70
2022/01/21 04:34:34;;;;;;;18.33;16.75;;;;;;;-3.91;100.00;99026.53;2090601;28;20572;-70
2022/01/21 04:35:38;;;;;;;18.73;17.05;;;;;;;-3.92;100.00;99024.13;2090260;28;20244;-70
2022/01/21 04:36:40;;;;;;;18.13;16.30;;;;;;;-3.99;100.00;99029.34;2089877;28;20240;-70
2022/01/21 04:37:48;;;;;;;18.35;16.10;;;;;;;-3.94;100.00;99034.75;2090167;28;20199;-71
2022/01/21 04:38:53;;;;;;;18.80;16.92;;;;;;;-3.96;100.00;99049.00;2091063;28;20245;-71
2022/01/21 04:40:00;;;;;;;18.52;16.95;;;;;;;-3.95;100.00;99037.56;2098629;28;20197;-70
2022/01/21 04:41:18;;;;;;;18.88;17.23;;;;;;;-3.94;100.00;99031.34;2098273;28;20660;-70
2022/01/21 04:47:42;;;;;;;18.35;16.55;;;;;;;-4.02;100.00;99029.75;2098316;28;20194;-70
2022/01/21 04:48:49;;;;;;;18.33;16.52;;;;;;;-4.05;100.00;99030.16;2090806;28;20310;-71
2022/01/21 04:49:50;;;;;;;18.00;16.23;;;;;;;-4.02;100.00;99034.94;2090045;28;20248;-70
2022/01/21 04:50:56;;;;;;;21.05;16.55;;;;;;;-4.05;100.00;99036.16;2089665;28;20195;-71
2022/01/21 04:52:02;;;;;;;18.48;16.85;;;;;;;-4.09;100.00;99029.75;2090798;28;20261;-70
2022/01/21 04:53:14;;;;;;;18.50;16.67;;;;;;;-4.06;100.00;99039.78;2091776;28;20216;-71
2022/01/21 04:54:20;;;;;;;18.10;16.60;;;;;;;-4.11;100.00;99039.56;2090966;28;20233;-70
2022/01/21 04:55:22;;;;;;;18.47;16.87;;;;;;;-4.11;100.00;99042.19;2089946;28;20246;-70
2022/01/21 04:56:22;;;;;;;18.88;16.92;;;;;;;-4.10;100.00;99048.19;2098285;28;20576;-71
2022/01/21 04:57:24;;;;;;;17.70;16.10;;;;;;;-4.13;100.00;99043.38;2098182;28;20329;-70
2022/01/21 04:58:25;;;;;;;17.67;16.17;;;;;;;-4.15;100.00;99048.81;2089918;28;20268;-70
2022/01/21 04:59:31;;;;;;;17.70;16.10;;;;;;;-4.16;100.00;99044.59;2098164;28;20734;-70
2022/01/21 05:00:32;;;;;;;18.38;16.88;;;;;;;-4.13;100.00;99044.19;2106568;28;20204;-70
2022/01/21 05:01:35;;;;;;;17.52;16.23;;;;;;;-4.16;100.00;99030.78;2098077;28;20313;-70
2022/01/21 05:02:36;;;;;;;18.02;16.38;;;;;;;-4.21;100.00;99036.56;2089994;28;20678;-70
2022/01/21 05:03:41;;;;;;;18.80;16.83;;;;;;;-4.18;100.00;99040.56;2090056;28;20190;-70
2022/01/21 05:04:42;;;;;;;18.42;16.65;;;;;;;-4.18;100.00;99051.78;2090197;28;20237;-71
2022/01/21 05:05:53;;;;;;;18.02;16.40;;;;;;;-4.18;100.00;99045.78;2089925;28;20205;-70
2022/01/21 05:06:55;;;;;;;18.60;16.88;;;;;;;-4.23;100.00;99053.41;2098158;28;20209;-70
2022/01/21 05:08:03;;;;;;;17.77;16.17;;;;;;;-4.28;100.00;99054.00;2097897;28;20214;-70
2022/01/21 05:09:05;;;;;;;18.15;16.70;;;;;;;-4.24;100.00;99051.81;2090814;28;20218;-70
2022/01/21 05:10:08;;;;;;;18.60;17.02;;;;;;;-4.26;100.00;99057.19;2097990;28;20206;-71
2022/01/21 05:11:09;;;;;;;18.25;16.80;;;;;;;-4.27;100.00;99050.38;2098090;28;20194;-70
2022/01/21 05:12:13;;;;;;;20.65;18.25;;;;;;;-4.30;100.00;99050.81;2098123;28;20194;-70
2022/01/21 05:13:24;;;;;;;18.48;16.98;;;;;;;-4.25;100.00;99061.44;2098248;28;20190;-71
2022/01/21 05:14:39;;;;;;;19.58;17.73;;;;;;;-4.23;100.00;99053.41;2098986;28;20198;-70
2022/01/21 05:16:00;;;;;;;19.58;17.52;;;;;;;-4.26;100.00;99059.81;2098122;28;20186;-71
2022/01/21 05:17:05;;;;;;;18.65;16.80;;;;;;;-4.28;100.00;99059.22;2092573;28;20199;-70
2022/01/21 05:18:07;;;;;;;18.52;16.88;;;;;;;-4.29;100.00;99055.81;2098396;28;20608;-71
2022/01/21 05:19:19;;;;;;;18.80;17.15;;;;;;;-4.26;100.00;99067.63;2098140;28;20194;-70
2022/01/21 05:20:37;;;;;;;18.45;16.75;;;;;;;-4.29;100.00;99060.22;2092348;28;20285;-70
2022/01/21 05:21:52;;;;;;;18.35;16.85;;;;;;;-4.36;100.00;99060.19;2091082;28;20230;-71
2022/01/21 05:22:56;;;;;;;17.85;16.45;;;;;;;-4.38;100.00;99059.59;2089824;28;20277;-70
2022/01/21 05:23:58;;;;;;;19.17;17.37;;;;;;;-4.39;100.00;99055.41;2081573;28;20752;-71
2022/01/21 05:24:59;;;;;;;17.58;16.27;;;;;;;-4.44;100.00;99051.78;2081526;28;20212;-70